Terminal Aerodrome Forecast
Issued by NWS

Home | Current Version | Previous Version | Text Only | Print | Product List | Glossary On
Versions: 1 2 3 4 5 6 7 8 9 10 11 12 13
000
FTUS46 KPDT 191720
TAFYKM
TAF
KYKM 191720Z 1918/2018 VRB04KT P6SM BKN250
     FM192200 18006KT P6SM SCT100 BKN200
     FM200200 21007KT P6SM OVC100
     FM200400 23008KT P6SM -RA OVC050=

USA.gov is the U.S. government's official web portal to all federal, state and local government web resources and services.